sensor_id;sensor_type;location;lat;lon;timestamp;P1;durP1;ratioP1;P2;durP2;ratioP2
66521;SDS011;53349;53.538;8.584;2024-03-07T00:00:35;22.43;;;9.50;;
66521;SDS011;53349;53.538;8.584;2024-03-07T00:03:00;24.20;;;8.67;;
66521;SDS011;53349;53.538;8.584;2024-03-07T00:05:26;22.42;;;8.18;;
66521;SDS011;53349;53.538;8.584;2024-03-07T00:07:51;26.90;;;10.20;;
66521;SDS011;53349;53.538;8.584;2024-03-07T00:10:18;20.97;;;9.07;;
66521;SDS011;53349;53.538;8.584;2024-03-07T00:12:43;26.65;;;10.02;;
66521;SDS011;53349;53.538;8.584;2024-03-07T00:15:10;24.03;;;9.37;;
66521;SDS011;53349;53.538;8.584;2024-03-07T00:17:36;28.25;;;10.07;;
66521;SDS011;53349;53.538;8.584;2024-03-07T00:20:02;21.90;;;9.82;;
66521;SDS011;53349;53.538;8.584;2024-03-07T00:22:28;21.30;;;9.32;;
66521;SDS011;53349;53.538;8.584;2024-03-07T00:24:54;25.97;;;10.23;;
66521;SDS011;53349;53.538;8.584;2024-03-07T00:27:19;26.13;;;10.23;;
66521;SDS011;53349;53.538;8.584;2024-03-07T00:29:44;28.87;;;10.23;;
66521;SDS011;53349;53.538;8.584;2024-03-07T00:32:10;25.17;;;10.57;;
66521;SDS011;53349;53.538;8.584;2024-03-07T00:34:35;26.17;;;10.60;;
66521;SDS011;53349;53.538;8.584;2024-03-07T00:37:00;22.70;;;10.13;;
66521;SDS011;53349;53.538;8.584;2024-03-07T00:39:26;23.60;;;9.50;;
66521;SDS011;53349;53.538;8.584;2024-03-07T00:41:51;30.85;;;11.15;;
66521;SDS011;53349;53.538;8.584;2024-03-07T00:44:16;31.67;;;12.00;;
66521;SDS011;53349;53.538;8.584;2024-03-07T00:46:42;28.23;;;11.60;;
66521;SDS011;53349;53.538;8.584;2024-03-07T00:49:08;30.80;;;11.80;;
66521;SDS011;53349;53.538;8.584;2024-03-07T00:51:33;32.10;;;12.25;;
66521;SDS011;53349;53.538;8.584;2024-03-07T00:53:59;33.47;;;13.00;;
66521;SDS011;53349;53.538;8.584;2024-03-07T00:56:24;37.25;;;12.88;;
66521;SDS011;53349;53.538;8.584;2024-03-07T00:58:50;36.45;;;13.18;;
66521;SDS011;53349;53.538;8.584;2024-03-07T01:01:16;32.40;;;11.57;;
66521;SDS011;53349;53.538;8.584;2024-03-07T01:03:42;34.33;;;12.65;;
66521;SDS011;53349;53.538;8.584;2024-03-07T01:06:07;37.10;;;13.30;;
66521;SDS011;53349;53.538;8.584;2024-03-07T01:08:33;37.97;;;13.00;;
66521;SDS011;53349;53.538;8.584;2024-03-07T01:10:58;35.30;;;12.63;;
66521;SDS011;53349;53.538;8.584;2024-03-07T01:13:23;33.90;;;13.03;;
66521;SDS011;53349;53.538;8.584;2024-03-07T01:15:49;35.57;;;13.10;;
66521;SDS011;53349;53.538;8.584;2024-03-07T01:18:15;31.75;;;12.30;;
66521;SDS011;53349;53.538;8.584;2024-03-07T01:20:40;36.03;;;13.27;;
66521;SDS011;53349;53.538;8.584;2024-03-07T01:23:06;40.22;;;14.23;;
66521;SDS011;53349;53.538;8.584;2024-03-07T01:25:31;37.55;;;13.57;;
66521;SDS011;53349;53.538;8.584;2024-03-07T01:27:57;43.53;;;14.13;;
66521;SDS011;53349;53.538;8.584;2024-03-07T01:30:22;36.60;;;13.07;;
66521;SDS011;53349;53.538;8.584;2024-03-07T01:32:47;40.17;;;14.43;;
66521;SDS011;53349;53.538;8.584;2024-03-07T01:35:13;37.47;;;13.80;;
66521;SDS011;53349;53.538;8.584;2024-03-07T01:37:38;34.40;;;13.67;;
66521;SDS011;53349;53.538;8.584;2024-03-07T01:40:03;39.17;;;13.77;;
66521;SDS011;53349;53.538;8.584;2024-03-07T01:42:29;36.40;;;13.60;;
66521;SDS011;53349;53.538;8.584;2024-03-07T01:44:54;37.77;;;12.23;;
66521;SDS011;53349;53.538;8.584;2024-03-07T01:47:20;41.07;;;13.67;;
66521;SDS011;53349;53.538;8.584;2024-03-07T01:49:45;37.37;;;14.03;;
66521;SDS011;53349;53.538;8.584;2024-03-07T01:52:10;35.17;;;13.20;;
66521;SDS011;53349;53.538;8.584;2024-03-07T01:54:37;37.65;;;14.05;;
66521;SDS011;53349;53.538;8.584;2024-03-07T01:57:03;40.65;;;14.05;;
66521;SDS011;53349;53.538;8.584;2024-03-07T01:59:29;36.57;;;13.63;;
66521;SDS011;53349;53.538;8.584;2024-03-07T02:01:56;33.25;;;11.75;;
66521;SDS011;53349;53.538;8.584;2024-03-07T02:04:21;37.50;;;12.90;;
66521;SDS011;53349;53.538;8.584;2024-03-07T02:06:47;35.97;;;13.23;;
66521;SDS011;53349;53.538;8.584;2024-03-07T02:09:12;38.47;;;13.17;;
66521;SDS011;53349;53.538;8.584;2024-03-07T02:11:38;32.97;;;11.57;;
66521;SDS011;53349;53.538;8.584;2024-03-07T02:14:03;41.90;;;13.53;;
66521;SDS011;53349;53.538;8.584;2024-03-07T02:16:28;37.70;;;13.53;;
66521;SDS011;53349;53.538;8.584;2024-03-07T02:18:54;35.60;;;12.60;;
66521;SDS011;53349;53.538;8.584;2024-03-07T02:21:19;40.83;;;13.77;;
66521;SDS011;53349;53.538;8.584;2024-03-07T02:23:45;42.10;;;13.77;;
66521;SDS011;53349;53.538;8.584;2024-03-07T02:26:10;38.83;;;13.20;;
66521;SDS011;53349;53.538;8.584;2024-03-07T02:28:35;35.90;;;12.73;;
66521;SDS011;53349;53.538;8.584;2024-03-07T02:31:01;37.00;;;13.30;;
66521;SDS011;53349;53.538;8.584;2024-03-07T02:33:26;41.22;;;13.23;;
66521;SDS011;53349;53.538;8.584;2024-03-07T02:35:52;41.63;;;14.40;;
66521;SDS011;53349;53.538;8.584;2024-03-07T02:38:17;33.67;;;12.63;;
66521;SDS011;53349;53.538;8.584;2024-03-07T02:40:43;40.95;;;13.38;;
66521;SDS011;53349;53.538;8.584;2024-03-07T02:43:08;36.03;;;12.60;;
66521;SDS011;53349;53.538;8.584;2024-03-07T02:45:33;32.37;;;12.00;;
66521;SDS011;53349;53.538;8.584;2024-03-07T02:47:59;35.03;;;11.67;;
66521;SDS011;53349;53.538;8.584;2024-03-07T02:50:24;33.73;;;11.43;;
66521;SDS011;53349;53.538;8.584;2024-03-07T02:52:50;36.20;;;13.55;;
66521;SDS011;53349;53.538;8.584;2024-03-07T02:55:15;26.42;;;9.63;;
66521;SDS011;53349;53.538;8.584;2024-03-07T02:57:41;33.27;;;12.00;;
66521;SDS011;53349;53.538;8.584;2024-03-07T03:00:06;34.77;;;12.20;;
66521;SDS011;53349;53.538;8.584;2024-03-07T03:02:32;32.95;;;12.75;;
66521;SDS011;53349;53.538;8.584;2024-03-07T03:04:57;32.03;;;12.03;;
66521;SDS011;53349;53.538;8.584;2024-03-07T03:07:23;33.70;;;11.47;;
66521;SDS011;53349;53.538;8.584;2024-03-07T03:09:48;30.73;;;11.67;;
66521;SDS011;53349;53.538;8.584;2024-03-07T03:12:13;32.87;;;11.80;;
66521;SDS011;53349;53.538;8.584;2024-03-07T03:14:39;31.67;;;12.23;;
66521;SDS011;53349;53.538;8.584;2024-03-07T03:17:04;31.50;;;10.93;;
66521;SDS011;53349;53.538;8.584;2024-03-07T03:19:29;36.05;;;12.65;;
66521;SDS011;53349;53.538;8.584;2024-03-07T03:21:55;34.47;;;12.47;;
66521;SDS011;53349;53.538;8.584;2024-03-07T03:24:20;31.03;;;11.47;;
66521;SDS011;53349;53.538;8.584;2024-03-07T03:26:46;29.40;;;11.13;;
66521;SDS011;53349;53.538;8.584;2024-03-07T03:29:11;35.33;;;11.60;;
66521;SDS011;53349;53.538;8.584;2024-03-07T03:31:36;34.92;;;12.38;;
66521;SDS011;53349;53.538;8.584;2024-03-07T03:34:02;33.25;;;11.73;;
66521;SDS011;53349;53.538;8.584;2024-03-07T03:36:27;32.67;;;11.70;;
66521;SDS011;53349;53.538;8.584;2024-03-07T03:38:53;34.50;;;11.47;;
66521;SDS011;53349;53.538;8.584;2024-03-07T03:41:18;32.27;;;11.33;;
66521;SDS011;53349;53.538;8.584;2024-03-07T03:43:44;32.00;;;11.33;;
66521;SDS011;53349;53.538;8.584;2024-03-07T03:46:10;32.72;;;11.27;;
66521;SDS011;53349;53.538;8.584;2024-03-07T03:48:35;31.50;;;10.27;;
66521;SDS011;53349;53.538;8.584;2024-03-07T03:51:00;28.10;;;11.23;;
66521;SDS011;53349;53.538;8.584;2024-03-07T03:53:26;33.00;;;11.53;;
66521;SDS011;53349;53.538;8.584;2024-03-07T03:55:51;28.30;;;11.20;;
66521;SDS011;53349;53.538;8.584;2024-03-07T03:58:16;31.77;;;11.03;;
66521;SDS011;53349;53.538;8.584;2024-03-07T04:00:42;32.17;;;11.67;;
66521;SDS011;53349;53.538;8.584;2024-03-07T04:03:07;34.00;;;12.57;;
66521;SDS011;53349;53.538;8.584;2024-03-07T04:05:32;30.27;;;11.37;;
66521;SDS011;53349;53.538;8.584;2024-03-07T04:07:58;31.50;;;11.77;;
66521;SDS011;53349;53.538;8.584;2024-03-07T04:10:23;31.07;;;11.00;;
66521;SDS011;53349;53.538;8.584;2024-03-07T04:12:48;34.15;;;11.60;;
66521;SDS011;53349;53.538;8.584;2024-03-07T04:15:14;32.30;;;11.35;;
66521;SDS011;53349;53.538;8.584;2024-03-07T04:17:40;29.17;;;11.77;;
66521;SDS011;53349;53.538;8.584;2024-03-07T04:20:06;31.38;;;10.93;;
66521;SDS011;53349;53.538;8.584;2024-03-07T04:22:32;35.17;;;12.73;;
66521;SDS011;53349;53.538;8.584;2024-03-07T04:24:58;32.08;;;12.32;;
66521;SDS011;53349;53.538;8.584;2024-03-07T04:27:24;30.88;;;12.25;;
66521;SDS011;53349;53.538;8.584;2024-03-07T04:29:50;34.13;;;12.53;;
66521;SDS011;53349;53.538;8.584;2024-03-07T04:32:15;32.07;;;12.53;;
66521;SDS011;53349;53.538;8.584;2024-03-07T04:34:40;30.57;;;10.63;;
66521;SDS011;53349;53.538;8.584;2024-03-07T04:37:06;35.05;;;12.38;;
66521;SDS011;53349;53.538;8.584;2024-03-07T04:39:31;31.95;;;12.00;;
66521;SDS011;53349;53.538;8.584;2024-03-07T04:41:57;34.30;;;12.37;;
66521;SDS011;53349;53.538;8.584;2024-03-07T04:44:22;35.80;;;10.97;;
66521;SDS011;53349;53.538;8.584;2024-03-07T04:46:48;31.03;;;11.83;;
66521;SDS011;53349;53.538;8.584;2024-03-07T04:49:14;30.55;;;11.10;;
66521;SDS011;53349;53.538;8.584;2024-03-07T04:51:39;27.30;;;9.87;;
66521;SDS011;53349;53.538;8.584;2024-03-07T04:54:04;31.27;;;11.33;;
66521;SDS011;53349;53.538;8.584;2024-03-07T04:56:30;29.67;;;10.60;;
66521;SDS011;53349;53.538;8.584;2024-03-07T04:58:55;29.40;;;11.43;;
66521;SDS011;53349;53.538;8.584;2024-03-07T05:01:20;25.52;;;10.35;;
66521;SDS011;53349;53.538;8.584;2024-03-07T05:03:46;30.75;;;11.15;;
66521;SDS011;53349;53.538;8.584;2024-03-07T05:06:12;31.23;;;10.80;;
66521;SDS011;53349;53.538;8.584;2024-03-07T05:08:38;29.08;;;10.55;;
66521;SDS011;53349;53.538;8.584;2024-03-07T05:11:03;30.13;;;10.00;;
66521;SDS011;53349;53.538;8.584;2024-03-07T05:13:29;36.38;;;12.77;;
66521;SDS011;53349;53.538;8.584;2024-03-07T05:15:55;30.73;;;11.00;;
66521;SDS011;53349;53.538;8.584;2024-03-07T05:18:20;35.87;;;11.17;;
66521;SDS011;53349;53.538;8.584;2024-03-07T05:20:45;27.93;;;10.80;;
66521;SDS011;53349;53.538;8.584;2024-03-07T05:23:11;29.57;;;10.77;;
66521;SDS011;53349;53.538;8.584;2024-03-07T05:25:36;29.50;;;10.45;;
66521;SDS011;53349;53.538;8.584;2024-03-07T05:28:01;26.77;;;9.95;;
66521;SDS011;53349;53.538;8.584;2024-03-07T05:30:27;30.87;;;10.37;;
66521;SDS011;53349;53.538;8.584;2024-03-07T05:32:52;29.60;;;10.57;;
66521;SDS011;53349;53.538;8.584;2024-03-07T05:35:18;35.40;;;11.63;;
66521;SDS011;53349;53.538;8.584;2024-03-07T05:37:43;30.40;;;11.17;;
66521;SDS011;53349;53.538;8.584;2024-03-07T05:40:08;34.07;;;11.30;;
66521;SDS011;53349;53.538;8.584;2024-03-07T05:42:34;32.30;;;10.63;;
66521;SDS011;53349;53.538;8.584;2024-03-07T05:44:59;25.03;;;9.83;;
66521;SDS011;53349;53.538;8.584;2024-03-07T05:47:25;32.37;;;10.30;;
66521;SDS011;53349;53.538;8.584;2024-03-07T05:49:50;25.57;;;9.27;;
66521;SDS011;53349;53.538;8.584;2024-03-07T05:52:15;28.80;;;10.57;;
66521;SDS011;53349;53.538;8.584;2024-03-07T05:54:41;22.52;;;9.45;;
66521;SDS011;53349;53.538;8.584;2024-03-07T05:57:06;28.30;;;10.35;;
66521;SDS011;53349;53.538;8.584;2024-03-07T05:59:31;26.83;;;9.63;;
66521;SDS011;53349;53.538;8.584;2024-03-07T06:01:57;30.63;;;11.17;;
66521;SDS011;53349;53.538;8.584;2024-03-07T06:04:23;23.57;;;10.10;;
66521;SDS011;53349;53.538;8.584;2024-03-07T06:06:48;27.92;;;10.80;;
66521;SDS011;53349;53.538;8.584;2024-03-07T06:09:14;32.93;;;10.47;;
66521;SDS011;53349;53.538;8.584;2024-03-07T06:11:40;32.42;;;11.20;;
66521;SDS011;53349;53.538;8.584;2024-03-07T06:14:06;32.27;;;10.90;;
66521;SDS011;53349;53.538;8.584;2024-03-07T06:16:33;31.50;;;11.02;;
66521;SDS011;53349;53.538;8.584;2024-03-07T06:19:03;31.90;;;10.10;;
66521;SDS011;53349;53.538;8.584;2024-03-07T06:21:29;33.95;;;10.68;;
66521;SDS011;53349;53.538;8.584;2024-03-07T06:23:55;32.67;;;11.50;;
66521;SDS011;53349;53.538;8.584;2024-03-07T06:26:20;31.30;;;9.77;;
66521;SDS011;53349;53.538;8.584;2024-03-07T06:28:46;24.23;;;9.80;;
66521;SDS011;53349;53.538;8.584;2024-03-07T06:31:11;29.60;;;10.20;;
66521;SDS011;53349;53.538;8.584;2024-03-07T06:33:36;28.57;;;10.40;;
66521;SDS011;53349;53.538;8.584;2024-03-07T06:36:01;31.70;;;10.97;;
66521;SDS011;53349;53.538;8.584;2024-03-07T06:38:27;33.23;;;10.83;;
66521;SDS011;53349;53.538;8.584;2024-03-07T06:40:52;30.27;;;10.40;;
66521;SDS011;53349;53.538;8.584;2024-03-07T06:43:18;31.45;;;10.63;;
66521;SDS011;53349;53.538;8.584;2024-03-07T06:45:43;26.63;;;9.37;;
66521;SDS011;53349;53.538;8.584;2024-03-07T06:48:09;26.50;;;10.50;;
66521;SDS011;53349;53.538;8.584;2024-03-07T06:50:34;26.40;;;9.93;;
66521;SDS011;53349;53.538;8.584;2024-03-07T06:53:00;28.15;;;10.63;;
66521;SDS011;53349;53.538;8.584;2024-03-07T06:55:26;27.08;;;10.15;;
66521;SDS011;53349;53.538;8.584;2024-03-07T06:57:52;30.97;;;11.30;;
66521;SDS011;53349;53.538;8.584;2024-03-07T07:00:17;30.20;;;10.37;;
66521;SDS011;53349;53.538;8.584;2024-03-07T07:02:43;30.92;;;10.40;;
66521;SDS011;53349;53.538;8.584;2024-03-07T07:05:08;31.83;;;10.85;;
66521;SDS011;53349;53.538;8.584;2024-03-07T07:07:46;28.33;;;10.40;;
66521;SDS011;53349;53.538;8.584;2024-03-07T07:10:12;24.52;;;8.30;;
66521;SDS011;53349;53.538;8.584;2024-03-07T07:12:39;26.30;;;8.30;;
66521;SDS011;53349;53.538;8.584;2024-03-07T07:15:04;17.77;;;6.53;;
66521;SDS011;53349;53.538;8.584;2024-03-07T07:17:30;22.67;;;7.97;;
66521;SDS011;53349;53.538;8.584;2024-03-07T07:19:58;21.83;;;8.18;;
66521;SDS011;53349;53.538;8.584;2024-03-07T07:22:24;20.38;;;7.60;;
66521;SDS011;53349;53.538;8.584;2024-03-07T07:24:50;20.45;;;7.72;;
66521;SDS011;53349;53.538;8.584;2024-03-07T07:27:15;20.57;;;6.70;;
66521;SDS011;53349;53.538;8.584;2024-03-07T07:29:41;12.57;;;5.80;;
66521;SDS011;53349;53.538;8.584;2024-03-07T07:32:06;18.73;;;6.77;;
66521;SDS011;53349;53.538;8.584;2024-03-07T07:34:31;19.17;;;8.07;;
66521;SDS011;53349;53.538;8.584;2024-03-07T07:36:57;12.53;;;5.73;;
66521;SDS011;53349;53.538;8.584;2024-03-07T07:39:22;18.37;;;7.60;;
66521;SDS011;53349;53.538;8.584;2024-03-07T07:41:47;15.60;;;6.27;;
66521;SDS011;53349;53.538;8.584;2024-03-07T07:44:13;17.08;;;7.22;;
66521;SDS011;53349;53.538;8.584;2024-03-07T07:46:38;16.55;;;6.85;;
66521;SDS011;53349;53.538;8.584;2024-03-07T07:49:03;18.37;;;6.63;;
66521;SDS011;53349;53.538;8.584;2024-03-07T07:51:29;16.80;;;6.43;;
66521;SDS011;53349;53.538;8.584;2024-03-07T07:53:54;22.03;;;7.07;;
66521;SDS011;53349;53.538;8.584;2024-03-07T07:56:19;13.87;;;6.07;;
66521;SDS011;53349;53.538;8.584;2024-03-07T07:58:45;16.37;;;6.37;;
66521;SDS011;53349;53.538;8.584;2024-03-07T08:01:10;17.60;;;6.47;;
66521;SDS011;53349;53.538;8.584;2024-03-07T08:03:36;17.08;;;6.35;;
66521;SDS011;53349;53.538;8.584;2024-03-07T08:06:01;18.05;;;7.47;;
66521;SDS011;53349;53.538;8.584;2024-03-07T08:08:26;21.23;;;7.43;;
66521;SDS011;53349;53.538;8.584;2024-03-07T08:10:52;18.13;;;7.40;;
66521;SDS011;53349;53.538;8.584;2024-03-07T08:13:17;17.57;;;6.90;;
66521;SDS011;53349;53.538;8.584;2024-03-07T08:15:42;16.43;;;6.13;;
66521;SDS011;53349;53.538;8.584;2024-03-07T08:18:08;15.95;;;6.47;;
66521;SDS011;53349;53.538;8.584;2024-03-07T08:20:33;18.40;;;7.28;;
66521;SDS011;53349;53.538;8.584;2024-03-07T08:23:02;18.83;;;7.73;;
66521;SDS011;53349;53.538;8.584;2024-03-07T08:25:28;16.70;;;7.03;;
66521;SDS011;53349;53.538;8.584;2024-03-07T08:27:54;17.03;;;6.77;;
66521;SDS011;53349;53.538;8.584;2024-03-07T08:30:21;18.42;;;6.63;;
66521;SDS011;53349;53.538;8.584;2024-03-07T08:32:47;18.27;;;7.80;;
66521;SDS011;53349;53.538;8.584;2024-03-07T08:35:13;14.65;;;7.20;;
66521;SDS011;53349;53.538;8.584;2024-03-07T08:37:39;17.02;;;7.18;;
66521;SDS011;53349;53.538;8.584;2024-03-07T08:40:06;13.83;;;6.17;;
66521;SDS011;53349;53.538;8.584;2024-03-07T08:42:36;12.50;;;6.30;;
66521;SDS011;53349;53.538;8.584;2024-03-07T08:45:02;16.10;;;7.13;;
66521;SDS011;53349;53.538;8.584;2024-03-07T08:47:28;16.02;;;7.30;;
66521;SDS011;53349;53.538;8.584;2024-03-07T08:49:53;15.67;;;6.93;;
66521;SDS011;53349;53.538;8.584;2024-03-07T08:52:19;16.77;;;6.65;;
66521;SDS011;53349;53.538;8.584;2024-03-07T08:54:44;16.33;;;7.55;;
66521;SDS011;53349;53.538;8.584;2024-03-07T08:57:10;14.57;;;7.07;;
66521;SDS011;53349;53.538;8.584;2024-03-07T08:59:35;17.23;;;6.90;;
66521;SDS011;53349;53.538;8.584;2024-03-07T09:02:00;15.10;;;6.97;;
66521;SDS011;53349;53.538;8.584;2024-03-07T09:04:26;13.77;;;6.20;;
66521;SDS011;53349;53.538;8.584;2024-03-07T09:06:51;16.07;;;6.60;;
66521;SDS011;53349;53.538;8.584;2024-03-07T09:09:16;14.77;;;6.70;;
66521;SDS011;53349;53.538;8.584;2024-03-07T09:11:42;21.27;;;7.10;;
66521;SDS011;53349;53.538;8.584;2024-03-07T09:14:07;19.00;;;7.13;;
66521;SDS011;53349;53.538;8.584;2024-03-07T09:16:32;17.42;;;7.10;;
66521;SDS011;53349;53.538;8.584;2024-03-07T09:18:58;15.43;;;6.30;;
66521;SDS011;53349;53.538;8.584;2024-03-07T09:21:23;16.40;;;6.83;;
66521;SDS011;53349;53.538;8.584;2024-03-07T09:23:49;16.43;;;6.87;;
66521;SDS011;53349;53.538;8.584;2024-03-07T09:26:14;15.07;;;6.60;;
66521;SDS011;53349;53.538;8.584;2024-03-07T09:28:39;16.77;;;7.47;;
66521;SDS011;53349;53.538;8.584;2024-03-07T09:31:05;18.40;;;7.97;;
66521;SDS011;53349;53.538;8.584;2024-03-07T09:33:30;13.13;;;6.47;;
66521;SDS011;53349;53.538;8.584;2024-03-07T09:35:55;16.33;;;6.70;;
66521;SDS011;53349;53.538;8.584;2024-03-07T09:38:21;13.02;;;6.38;;
66521;SDS011;53349;53.538;8.584;2024-03-07T09:40:46;14.23;;;6.03;;
66521;SDS011;53349;53.538;8.584;2024-03-07T09:43:12;13.87;;;6.43;;
66521;SDS011;53349;53.538;8.584;2024-03-07T09:45:38;14.75;;;6.68;;
66521;SDS011;53349;53.538;8.584;2024-03-07T09:48:05;15.80;;;6.93;;
66521;SDS011;53349;53.538;8.584;2024-03-07T09:50:31;15.50;;;7.10;;
66521;SDS011;53349;53.538;8.584;2024-03-07T09:52:56;14.75;;;6.00;;
66521;SDS011;53349;53.538;8.584;2024-03-07T09:55:23;15.93;;;6.97;;
66521;SDS011;53349;53.538;8.584;2024-03-07T09:57:49;15.27;;;6.45;;
66521;SDS011;53349;53.538;8.584;2024-03-07T10:00:16;14.18;;;6.47;;
66521;SDS011;53349;53.538;8.584;2024-03-07T10:02:42;15.77;;;7.47;;
66521;SDS011;53349;53.538;8.584;2024-03-07T10:05:09;15.43;;;7.10;;
66521;SDS011;53349;53.538;8.584;2024-03-07T10:07:39;16.55;;;7.07;;
66521;SDS011;53349;53.538;8.584;2024-03-07T10:10:05;17.50;;;6.90;;
66521;SDS011;53349;53.538;8.584;2024-03-07T10:12:30;15.07;;;6.63;;
66521;SDS011;53349;53.538;8.584;2024-03-07T10:14:56;18.33;;;6.70;;
66521;SDS011;53349;53.538;8.584;2024-03-07T10:17:23;13.38;;;6.57;;
66521;SDS011;53349;53.538;8.584;2024-03-07T10:19:49;15.13;;;6.90;;
66521;SDS011;53349;53.538;8.584;2024-03-07T10:22:14;14.93;;;6.43;;
66521;SDS011;53349;53.538;8.584;2024-03-07T10:24:40;14.50;;;6.45;;
66521;SDS011;53349;53.538;8.584;2024-03-07T10:27:13;12.45;;;6.63;;
66521;SDS011;53349;53.538;8.584;2024-03-07T10:29:39;13.83;;;6.67;;
66521;SDS011;53349;53.538;8.584;2024-03-07T10:32:10;14.60;;;6.60;;
66521;SDS011;53349;53.538;8.584;2024-03-07T10:34:37;14.48;;;7.07;;
66521;SDS011;53349;53.538;8.584;2024-03-07T10:37:03;13.40;;;6.27;;
66521;SDS011;53349;53.538;8.584;2024-03-07T10:39:30;12.70;;;5.95;;
66521;SDS011;53349;53.538;8.584;2024-03-07T10:41:55;12.37;;;6.20;;
66521;SDS011;53349;53.538;8.584;2024-03-07T10:44:26;12.75;;;6.35;;
66521;SDS011;53349;53.538;8.584;2024-03-07T10:46:53;13.70;;;6.55;;
66521;SDS011;53349;53.538;8.584;2024-03-07T10:49:20;15.00;;;6.78;;
66521;SDS011;53349;53.538;8.584;2024-03-07T10:51:46;13.23;;;6.47;;
66521;SDS011;53349;53.538;8.584;2024-03-07T10:57:38;12.00;;;6.05;;
66521;SDS011;53349;53.538;8.584;2024-03-07T11:00:00;13.68;;;6.28;;
66521;SDS011;53349;53.538;8.584;2024-03-07T11:05:08;13.90;;;6.22;;
66521;SDS011;53349;53.538;8.584;2024-03-07T11:07:34;13.32;;;6.45;;
66521;SDS011;53349;53.538;8.584;2024-03-07T11:10:00;13.90;;;6.07;;
66521;SDS011;53349;53.538;8.584;2024-03-07T11:12:26;13.60;;;6.43;;
66521;SDS011;53349;53.538;8.584;2024-03-07T11:14:52;13.38;;;6.80;;
66521;SDS011;53349;53.538;8.584;2024-03-07T11:17:19;14.60;;;5.95;;
66521;SDS011;53349;53.538;8.584;2024-03-07T11:19:45;13.90;;;6.63;;
66521;SDS011;53349;53.538;8.584;2024-03-07T11:22:11;15.67;;;6.47;;
66521;SDS011;53349;53.538;8.584;2024-03-07T11:24:36;15.57;;;6.63;;
66521;SDS011;53349;53.538;8.584;2024-03-07T11:27:02;12.53;;;6.30;;
66521;SDS011;53349;53.538;8.584;2024-03-07T11:29:46;12.93;;;6.82;;
66521;SDS011;53349;53.538;8.584;2024-03-07T11:32:15;14.32;;;6.80;;
66521;SDS011;53349;53.538;8.584;2024-03-07T11:34:44;15.27;;;7.23;;
66521;SDS011;53349;53.538;8.584;2024-03-07T11:37:10;13.02;;;6.93;;
66521;SDS011;53349;53.538;8.584;2024-03-07T11:39:42;13.30;;;7.13;;
66521;SDS011;53349;53.538;8.584;2024-03-07T11:42:43;15.63;;;7.38;;
66521;SDS011;53349;53.538;8.584;2024-03-07T11:44:59;12.85;;;6.82;;
66521;SDS011;53349;53.538;8.584;2024-03-07T11:47:25;14.13;;;6.50;;
66521;SDS011;53349;53.538;8.584;2024-03-07T11:49:51;13.25;;;6.40;;
66521;SDS011;53349;53.538;8.584;2024-03-07T11:52:17;14.03;;;6.67;;
66521;SDS011;53349;53.538;8.584;2024-03-07T11:54:42;13.27;;;7.10;;
66521;SDS011;53349;53.538;8.584;2024-03-07T11:57:08;15.27;;;7.20;;
66521;SDS011;53349;53.538;8.584;2024-03-07T11:59:34;16.25;;;7.13;;
66521;SDS011;53349;53.538;8.584;2024-03-07T12:01:59;14.73;;;6.88;;
66521;SDS011;53349;53.538;8.584;2024-03-07T12:04:25;13.20;;;6.00;;
66521;SDS011;53349;53.538;8.584;2024-03-07T12:06:51;13.73;;;7.13;;
66521;SDS011;53349;53.538;8.584;2024-03-07T12:09:17;13.45;;;6.68;;
66521;SDS011;53349;53.538;8.584;2024-03-07T12:11:42;14.90;;;6.87;;
66521;SDS011;53349;53.538;8.584;2024-03-07T12:14:07;18.47;;;7.27;;
66521;SDS011;53349;53.538;8.584;2024-03-07T12:16:33;14.83;;;6.73;;
66521;SDS011;53349;53.538;8.584;2024-03-07T12:18:58;15.40;;;7.20;;
66521;SDS011;53349;53.538;8.584;2024-03-07T12:21:24;14.65;;;7.85;;
66521;SDS011;53349;53.538;8.584;2024-03-07T12:23:50;18.73;;;6.90;;
66521;SDS011;53349;53.538;8.584;2024-03-07T12:26:19;13.20;;;6.38;;
66521;SDS011;53349;53.538;8.584;2024-03-07T12:28:49;17.15;;;6.90;;
66521;SDS011;53349;53.538;8.584;2024-03-07T12:31:15;16.43;;;7.50;;
66521;SDS011;53349;53.538;8.584;2024-03-07T12:33:41;15.55;;;6.80;;
66521;SDS011;53349;53.538;8.584;2024-03-07T12:36:07;16.67;;;7.33;;
66521;SDS011;53349;53.538;8.584;2024-03-07T12:38:36;15.60;;;7.13;;
66521;SDS011;53349;53.538;8.584;2024-03-07T12:41:08;14.73;;;7.50;;
66521;SDS011;53349;53.538;8.584;2024-03-07T12:43:34;17.48;;;7.43;;
66521;SDS011;53349;53.538;8.584;2024-03-07T12:46:00;16.60;;;7.97;;
66521;SDS011;53349;53.538;8.584;2024-03-07T12:48:25;14.00;;;7.20;;
66521;SDS011;53349;53.538;8.584;2024-03-07T12:50:51;16.00;;;7.63;;
66521;SDS011;53349;53.538;8.584;2024-03-07T12:53:17;14.00;;;6.97;;
66521;SDS011;53349;53.538;8.584;2024-03-07T12:55:42;16.23;;;7.25;;
66521;SDS011;53349;53.538;8.584;2024-03-07T12:58:08;18.00;;;7.27;;
66521;SDS011;53349;53.538;8.584;2024-03-07T13:00:34;16.90;;;7.07;;
66521;SDS011;53349;53.538;8.584;2024-03-07T13:03:00;12.23;;;6.22;;
66521;SDS011;53349;53.538;8.584;2024-03-07T13:05:25;17.20;;;7.07;;
66521;SDS011;53349;53.538;8.584;2024-03-07T13:07:51;15.80;;;6.97;;
66521;SDS011;53349;53.538;8.584;2024-03-07T13:10:16;17.10;;;7.63;;
66521;SDS011;53349;53.538;8.584;2024-03-07T13:12:42;12.70;;;5.90;;
66521;SDS011;53349;53.538;8.584;2024-03-07T13:15:08;17.13;;;7.18;;
66521;SDS011;53349;53.538;8.584;2024-03-07T13:17:34;16.83;;;7.47;;
66521;SDS011;53349;53.538;8.584;2024-03-07T13:20:00;19.48;;;8.00;;
66521;SDS011;53349;53.538;8.584;2024-03-07T13:22:25;17.50;;;7.47;;
66521;SDS011;53349;53.538;8.584;2024-03-07T13:24:50;18.00;;;7.90;;
66521;SDS011;53349;53.538;8.584;2024-03-07T13:27:16;16.13;;;8.20;;
66521;SDS011;53349;53.538;8.584;2024-03-07T13:29:41;16.77;;;8.03;;
66521;SDS011;53349;53.538;8.584;2024-03-07T13:32:06;16.83;;;7.87;;
66521;SDS011;53349;53.538;8.584;2024-03-07T13:34:32;17.90;;;8.30;;
66521;SDS011;53349;53.538;8.584;2024-03-07T13:36:57;19.37;;;9.07;;
66521;SDS011;53349;53.538;8.584;2024-03-07T13:39:22;22.50;;;9.73;;
66521;SDS011;53349;53.538;8.584;2024-03-07T13:41:48;20.10;;;9.20;;
66521;SDS011;53349;53.538;8.584;2024-03-07T13:44:13;22.57;;;9.10;;
66521;SDS011;53349;53.538;8.584;2024-03-07T13:46:39;20.30;;;9.13;;
66521;SDS011;53349;53.538;8.584;2024-03-07T13:49:05;23.60;;;10.60;;
66521;SDS011;53349;53.538;8.584;2024-03-07T13:51:31;24.70;;;10.27;;
66521;SDS011;53349;53.538;8.584;2024-03-07T13:53:56;25.45;;;10.77;;
66521;SDS011;53349;53.538;8.584;2024-03-07T14:00:10;26.97;;;11.13;;
66521;SDS011;53349;53.538;8.584;2024-03-07T14:27:41;22.52;;;9.18;;
66521;SDS011;53349;53.538;8.584;2024-03-07T14:32:50;19.07;;;8.33;;
66521;SDS011;53349;53.538;8.584;2024-03-07T14:35:22;21.10;;;8.77;;
66521;SDS011;53349;53.538;8.584;2024-03-07T14:37:55;19.63;;;7.43;;
66521;SDS011;53349;53.538;8.584;2024-03-07T14:40:30;15.97;;;7.93;;
66521;SDS011;53349;53.538;8.584;2024-03-07T14:42:56;16.42;;;7.00;;
66521;SDS011;53349;53.538;8.584;2024-03-07T14:45:26;15.95;;;6.97;;
66521;SDS011;53349;53.538;8.584;2024-03-07T14:47:56;14.80;;;6.43;;
66521;SDS011;53349;53.538;8.584;2024-03-07T14:50:22;18.40;;;7.13;;
66521;SDS011;53349;53.538;8.584;2024-03-07T14:52:51;17.35;;;6.97;;
66521;SDS011;53349;53.538;8.584;2024-03-07T14:55:17;17.23;;;6.57;;
66521;SDS011;53349;53.538;8.584;2024-03-07T14:57:43;16.48;;;7.03;;